createdAt,value
2019-03-09T00:00:17.010Z,43.82
2019-03-09T00:01:16.815Z,43.84
2019-03-09T00:02:17.004Z,43.79
2019-03-09T00:03:16.910Z,43.82
2019-03-09T00:04:16.941Z,43.84
2019-03-09T00:05:17.041Z,43.78
2019-03-09T00:06:17.015Z,43.82
2019-03-09T00:07:17.497Z,43.73
2019-03-09T00:08:16.961Z,43.87
2019-03-09T00:09:16.971Z,43.83
2019-03-09T00:10:16.914Z,43.82
2019-03-09T00:11:16.883Z,43.77
2019-03-09T00:12:17.063Z,43.79
2019-03-09T00:13:16.816Z,43.84
2019-03-09T00:14:17.233Z,43.86
2019-03-09T00:15:16.812Z,43.83
2019-03-09T00:16:16.973Z,43.88
2019-03-09T00:17:17.011Z,43.83
2019-03-09T00:18:16.834Z,43.85
2019-03-09T00:19:16.907Z,43.8
2019-03-09T00:20:17.009Z,43.8
2019-03-09T00:21:16.859Z,43.82
2019-03-09T00:22:16.961Z,43.8
2019-03-09T00:23:16.749Z,43.82
2019-03-09T00:24:18.668Z,43.88
2019-03-09T00:25:16.950Z,43.92
2019-03-09T00:26:16.721Z,43.89
2019-03-09T00:27:16.874Z,43.86
2019-03-09T00:28:16.877Z,43.9
2019-03-09T00:29:17.032Z,43.86
2019-03-09T00:30:17.350Z,43.82
2019-03-09T00:31:16.928Z,43.76
2019-03-09T00:32:16.932Z,43.76
2019-03-09T00:33:19.042Z,43.83
2019-03-09T00:34:17.078Z,43.81
2019-03-09T00:35:16.912Z,43.79
2019-03-09T00:36:16.861Z,43.72
2019-03-09T00:37:16.899Z,43.8
2019-03-09T00:38:16.898Z,43.76
2019-03-09T00:39:16.892Z,43.8
2019-03-09T00:40:16.918Z,43.74
2019-03-09T00:41:18.483Z,43.77
2019-03-09T00:42:16.930Z,43.69
2019-03-09T00:43:16.972Z,43.75
2019-03-09T00:44:16.818Z,43.83
2019-03-09T00:45:16.945Z,43.85
2019-03-09T00:46:16.847Z,43.82
2019-03-09T00:47:16.842Z,43.84
2019-03-09T00:48:16.961Z,43.85
2019-03-09T00:49:16.844Z,43.85
2019-03-09T00:50:16.829Z,43.81
2019-03-09T00:51:17.285Z,43.79
2019-03-09T00:52:17.163Z,43.72
2019-03-09T00:53:16.952Z,43.74
2019-03-09T00:54:17.245Z,43.79
2019-03-09T00:55:16.963Z,43.73
2019-03-09T00:56:16.905Z,43.81
2019-03-09T00:57:16.792Z,43.84
2019-03-09T00:58:16.873Z,43.83
2019-03-09T00:59:16.973Z,43.79
2019-03-09T01:00:16.819Z,43.85
2019-03-09T01:01:16.899Z,43.81
2019-03-09T01:02:16.891Z,43.79
2019-03-09T01:03:16.765Z,43.81
2019-03-09T01:04:16.907Z,43.94
2019-03-09T01:05:17.061Z,43.83
2019-03-09T01:06:16.865Z,43.8
2019-03-09T01:07:16.984Z,43.81
2019-03-09T01:08:16.751Z,43.83
2019-03-09T01:09:16.808Z,43.82
2019-03-09T01:10:16.909Z,43.81
2019-03-09T01:11:16.741Z,43.83
2019-03-09T01:12:17.063Z,43.87
2019-03-09T01:13:17.066Z,43.89
2019-03-09T01:14:16.881Z,43.86
2019-03-09T01:15:16.986Z,43.86
2019-03-09T01:16:16.688Z,43.87
2019-03-09T01:17:16.821Z,43.84
2019-03-09T01:18:16.867Z,43.83
2019-03-09T01:19:16.752Z,43.82
2019-03-09T01:20:16.893Z,43.79
2019-03-09T01:21:16.980Z,43.78
2019-03-09T01:22:16.833Z,43.84
2019-03-09T01:23:16.793Z,43.84
2019-03-09T01:24:16.921Z,43.85
2019-03-09T01:25:16.796Z,43.8
2019-03-09T01:26:16.932Z,43.87
2019-03-09T01:27:17.054Z,43.89
2019-03-09T01:28:16.882Z,43.87
2019-03-09T01:29:16.897Z,43.86
2019-03-09T01:30:16.936Z,43.87
2019-03-09T01:31:16.792Z,43.85
2019-03-09T01:32:16.923Z,43.8
2019-03-09T01:33:16.877Z,43.74
2019-03-09T01:34:16.818Z,43.84
2019-03-09T01:35:16.935Z,43.84
2019-03-09T01:36:16.811Z,43.8
2019-03-09T01:37:16.837Z,43.76
2019-03-09T01:38:16.634Z,43.8
2019-03-09T01:39:16.819Z,43.82
2019-03-09T01:40:16.887Z,43.77
2019-03-09T01:41:16.727Z,43.77
2019-03-09T01:42:16.831Z,43.79
2019-03-09T01:43:16.916Z,43.81
2019-03-09T01:44:16.753Z,43.76
2019-03-09T01:45:16.856Z,43.8
2019-03-09T01:46:16.833Z,43.78
2019-03-09T01:47:16.848Z,43.78
2019-03-09T01:48:16.833Z,43.77
2019-03-09T01:49:16.749Z,43.79
2019-03-09T01:50:16.935Z,43.79
2019-03-09T01:51:16.930Z,43.8
2019-03-09T01:52:16.809Z,43.81
2019-03-09T01:53:16.864Z,43.8
2019-03-09T01:54:16.906Z,43.81
2019-03-09T01:55:16.837Z,43.82
2019-03-09T01:56:17.236Z,43.78
2019-03-09T01:57:17.047Z,43.83
2019-03-09T01:58:16.832Z,43.81
2019-03-09T01:59:16.920Z,43.88
2019-03-09T02:00:16.929Z,43.84
2019-03-09T02:01:16.850Z,43.88
2019-03-09T02:02:16.867Z,43.9
2019-03-09T02:03:17.030Z,43.89
2019-03-09T02:04:16.781Z,43.84
2019-03-09T02:05:16.833Z,43.85
2019-03-09T02:06:16.686Z,43.86
2019-03-09T02:07:16.820Z,43.84
2019-03-09T02:08:16.870Z,43.88
2019-03-09T02:09:16.707Z,43.88
2019-03-09T02:10:16.951Z,43.89
2019-03-09T02:11:17.001Z,43.81
2019-03-09T02:12:16.808Z,43.94
2019-03-09T02:13:16.870Z,43.96
2019-03-09T02:14:16.990Z,43.91
2019-03-09T02:15:16.747Z,43.92
2019-03-09T02:16:16.881Z,43.87
2019-03-09T02:17:16.734Z,43.94
2019-03-09T02:18:16.757Z,43.98
2019-03-09T02:19:16.860Z,43.86
2019-03-09T02:20:16.791Z,43.93
2019-03-09T02:21:16.881Z,43.93
2019-03-09T02:22:16.987Z,43.87
2019-03-09T02:23:16.703Z,43.98
2019-03-09T02:24:16.783Z,43.91
2019-03-09T02:25:16.923Z,43.9
2019-03-09T02:26:16.794Z,43.86
2019-03-09T02:27:16.786Z,43.89
2019-03-09T02:28:16.895Z,43.92
2019-03-09T02:29:16.834Z,43.86
2019-03-09T02:30:16.932Z,43.87
2019-03-09T02:31:16.950Z,43.83
2019-03-09T02:32:16.725Z,43.84
2019-03-09T02:33:16.815Z,43.81
2019-03-09T02:34:16.836Z,43.82
2019-03-09T02:35:16.916Z,43.89
2019-03-09T02:36:16.858Z,43.9
2019-03-09T02:37:16.816Z,43.89
2019-03-09T02:38:17.400Z,43.87
2019-03-09T02:39:17.035Z,43.92
2019-03-09T02:40:16.906Z,43.9
2019-03-09T02:41:16.890Z,43.87
2019-03-09T02:42:16.994Z,43.79
2019-03-09T02:43:16.846Z,43.8
2019-03-09T02:44:16.897Z,43.9
2019-03-09T02:45:16.802Z,43.86
2019-03-09T02:46:16.770Z,43.87
2019-03-09T02:47:16.909Z,43.86
2019-03-09T02:48:16.816Z,43.87
2019-03-09T02:49:16.909Z,43.92
2019-03-09T02:50:17.011Z,43.84
2019-03-09T02:51:16.763Z,43.84
2019-03-09T02:52:16.865Z,43.87
2019-03-09T02:53:17.029Z,43.84
2019-03-09T02:54:16.818Z,43.88
2019-03-09T02:55:16.895Z,43.88
2019-03-09T02:56:16.690Z,43.88
2019-03-09T02:57:16.888Z,43.9
2019-03-09T02:58:16.907Z,43.89
2019-03-09T02:59:16.740Z,43.92
2019-03-09T03:00:17.392Z,43.88
2019-03-09T03:01:17.782Z,43.91
2019-03-09T03:02:16.975Z,43.93
2019-03-09T03:03:16.895Z,43.86
2019-03-09T03:04:17.266Z,43.88
2019-03-09T03:05:16.921Z,43.87
2019-03-09T03:06:16.842Z,43.86
2019-03-09T03:07:16.997Z,43.9
2019-03-09T03:08:16.715Z,43.86
2019-03-09T03:09:16.833Z,43.88
2019-03-09T03:10:16.795Z,43.86
2019-03-09T03:11:16.716Z,43.91
2019-03-09T03:12:16.943Z,43.81
2019-03-09T03:13:16.969Z,43.88
2019-03-09T03:14:16.874Z,43.91
2019-03-09T03:15:16.948Z,43.86
2019-03-09T03:16:16.798Z,43.86
2019-03-09T03:17:16.924Z,43.83
2019-03-09T03:18:16.883Z,43.88
2019-03-09T03:19:16.993Z,43.83
2019-03-09T03:20:17.097Z,43.84
2019-03-09T03:21:16.920Z,43.84
2019-03-09T03:22:17.771Z,43.82
2019-03-09T03:23:16.915Z,43.84
2019-03-09T03:24:16.678Z,43.8
2019-03-09T03:25:16.827Z,43.83
2019-03-09T03:26:17.005Z,43.76
2019-03-09T03:27:16.894Z,43.94
2019-03-09T03:28:16.837Z,43.92
2019-03-09T03:29:16.897Z,43.91
2019-03-09T03:30:17.073Z,43.9
2019-03-09T03:31:16.954Z,43.85
2019-03-09T03:32:16.733Z,43.88
2019-03-09T03:33:17.111Z,43.83
2019-03-09T03:34:17.041Z,43.9
2019-03-09T03:35:16.909Z,43.91
2019-03-09T03:36:16.780Z,43.88
2019-03-09T03:37:16.881Z,43.93
2019-03-09T03:38:16.834Z,43.95
2019-03-09T03:39:16.835Z,43.84
2019-03-09T03:40:16.645Z,43.84
2019-03-09T03:41:16.940Z,43.95
2019-03-09T03:42:16.920Z,43.9
2019-03-09T03:43:16.836Z,43.9
2019-03-09T03:44:16.879Z,43.89
2019-03-09T03:45:17.227Z,43.94
2019-03-09T03:46:16.797Z,43.89
2019-03-09T03:47:17.202Z,43.91
2019-03-09T03:48:16.681Z,43.93
2019-03-09T03:49:16.766Z,43.88
2019-03-09T03:50:16.928Z,43.91
2019-03-09T03:51:16.761Z,43.9
2019-03-09T03:52:16.779Z,43.89
2019-03-09T03:53:16.927Z,43.88
2019-03-09T03:54:16.749Z,43.91
2019-03-09T03:55:16.978Z,43.85
2019-03-09T03:56:17.010Z,43.9
2019-03-09T03:57:16.724Z,43.99
2019-03-09T03:58:16.736Z,43.94
2019-03-09T03:59:17.058Z,43.91
2019-03-09T04:00:16.860Z,43.92
2019-03-09T04:01:16.920Z,43.87
2019-03-09T04:02:17.003Z,43.89
2019-03-09T04:03:16.866Z,43.89
2019-03-09T04:04:16.829Z,43.9
2019-03-09T04:05:16.770Z,43.92
2019-03-09T04:06:16.798Z,43.94
2019-03-09T04:07:16.875Z,43.93
2019-03-09T04:08:16.661Z,43.91
2019-03-09T04:09:16.922Z,43.91
2019-03-09T04:10:16.770Z,43.92
2019-03-09T04:11:16.683Z,43.91
2019-03-09T04:12:16.950Z,43.91
2019-03-09T04:13:16.752Z,43.9
2019-03-09T04:14:16.755Z,43.92
2019-03-09T04:15:16.944Z,43.9
2019-03-09T04:16:16.742Z,43.88
2019-03-09T04:17:16.935Z,43.94
2019-03-09T04:18:17.005Z,43.87
2019-03-09T04:19:16.800Z,43.99
2019-03-09T04:20:16.980Z,43.94
2019-03-09T04:21:16.619Z,43.98
2019-03-09T04:22:16.792Z,43.97
2019-03-09T04:23:16.922Z,43.97
2019-03-09T04:24:16.745Z,44
2019-03-09T04:25:16.760Z,43.95
2019-03-09T04:26:17.012Z,43.94
2019-03-09T04:27:16.731Z,44
2019-03-09T04:28:16.875Z,43.94
2019-03-09T04:29:16.938Z,44
2019-03-09T04:30:16.830Z,43.97
2019-03-09T04:31:16.859Z,43.98
2019-03-09T04:32:16.975Z,43.98
2019-03-09T04:33:16.679Z,43.91
2019-03-09T04:34:16.855Z,43.99
2019-03-09T04:35:16.717Z,43.89
2019-03-09T04:36:16.703Z,43.92
2019-03-09T04:37:16.893Z,43.96
2019-03-09T04:38:16.699Z,43.92
2019-03-09T04:39:16.989Z,43.9
2019-03-09T04:40:16.789Z,43.92
2019-03-09T04:41:16.774Z,43.86
2019-03-09T04:42:16.825Z,43.93
2019-03-09T04:43:16.582Z,43.9
2019-03-09T04:44:16.717Z,43.9
2019-03-09T04:45:16.888Z,43.97
2019-03-09T04:46:16.645Z,43.98
2019-03-09T04:47:16.810Z,43.95
2019-03-09T04:48:16.904Z,44
2019-03-09T04:49:16.686Z,43.98
2019-03-09T04:50:16.810Z,44.01
2019-03-09T04:51:16.839Z,44
2019-03-09T04:52:16.641Z,44.01
2019-03-09T04:53:16.835Z,44.02
2019-03-09T04:54:16.701Z,44.09
2019-03-09T04:55:16.682Z,44.06
2019-03-09T04:56:16.864Z,44.07
2019-03-09T04:57:16.794Z,44.02
2019-03-09T04:58:16.751Z,43.99
2019-03-09T04:59:16.943Z,43.98
2019-03-09T05:00:16.704Z,43.98
2019-03-09T05:01:16.791Z,43.95
2019-03-09T05:02:16.705Z,43.9
2019-03-09T05:03:16.865Z,43.93
2019-03-09T05:04:16.808Z,43.89
2019-03-09T05:05:16.604Z,43.88
2019-03-09T05:06:16.771Z,43.86
2019-03-09T05:07:16.818Z,43.86
2019-03-09T05:08:16.686Z,43.81
2019-03-09T05:09:16.768Z,43.78
2019-03-09T05:10:16.825Z,43.83
2019-03-09T05:11:16.690Z,43.78
2019-03-09T05:12:16.844Z,43.75
2019-03-09T05:13:16.760Z,43.82
2019-03-09T05:14:16.755Z,43.84
2019-03-09T05:15:16.865Z,43.81
2019-03-09T05:16:16.719Z,43.74
2019-03-09T05:17:16.770Z,43.76
2019-03-09T05:18:16.889Z,43.7
2019-03-09T05:19:17.049Z,43.69
2019-03-09T05:20:16.788Z,43.78
2019-03-09T05:21:16.599Z,43.78
2019-03-09T05:22:16.815Z,43.67
2019-03-09T05:23:16.817Z,43.8
2019-03-09T05:24:16.765Z,43.71
2019-03-09T05:25:16.816Z,43.68
2019-03-09T05:26:16.947Z,43.7
2019-03-09T05:27:16.743Z,43.81
2019-03-09T05:28:16.905Z,43.77
2019-03-09T05:29:16.682Z,43.81
2019-03-09T05:30:16.794Z,43.82
2019-03-09T05:31:16.767Z,43.73
2019-03-09T05:32:16.672Z,43.75
2019-03-09T05:33:16.733Z,43.74
2019-03-09T05:34:16.910Z,43.84
2019-03-09T05:35:16.707Z,43.81
2019-03-09T05:36:16.765Z,43.78
2019-03-09T05:37:16.614Z,43.78
2019-03-09T05:38:16.873Z,43.81
2019-03-09T05:39:16.795Z,43.84
2019-03-09T05:40:16.691Z,43.77
2019-03-09T05:41:16.809Z,43.82
2019-03-09T05:42:17.144Z,43.87
2019-03-09T05:43:16.673Z,43.78
2019-03-09T05:44:16.764Z,43.79
2019-03-09T05:45:16.688Z,43.78
2019-03-09T05:46:16.989Z,43.87
2019-03-09T05:47:17.190Z,43.88
2019-03-09T05:48:16.694Z,43.85
2019-03-09T05:49:16.814Z,43.81
2019-03-09T05:50:16.832Z,43.86
2019-03-09T05:51:16.691Z,43.88
2019-03-09T05:52:16.705Z,43.81
2019-03-09T05:53:16.869Z,43.78
2019-03-09T05:54:16.706Z,43.81
2019-03-09T05:55:16.741Z,43.81
2019-03-09T05:56:16.576Z,43.84
2019-03-09T05:57:16.720Z,43.85
2019-03-09T05:58:16.804Z,43.82
2019-03-09T05:59:16.672Z,43.81
2019-03-09T06:00:16.830Z,43.75
2019-03-09T06:01:16.814Z,43.49
2019-03-09T06:02:16.654Z,43.28
2019-03-09T06:03:16.902Z,42.42
2019-03-09T06:04:16.606Z,43.09
2019-03-09T06:05:16.649Z,42.88
2019-03-09T06:06:16.756Z,42.83
2019-03-09T06:07:16.594Z,42.94
2019-03-09T06:08:17.026Z,42.95
2019-03-09T06:09:16.924Z,42.95
2019-03-09T06:10:16.676Z,43.02
2019-03-09T06:11:16.735Z,42.93
2019-03-09T06:12:16.719Z,43.12
2019-03-09T06:13:16.756Z,43.33
2019-03-09T06:14:16.887Z,43.29
2019-03-09T06:15:16.542Z,42.9
2019-03-09T06:16:16.823Z,42.72
2019-03-09T06:17:16.839Z,42.72
2019-03-09T06:18:16.616Z,42.69
2019-03-09T06:19:16.754Z,43.13
2019-03-09T06:20:16.869Z,42.98
2019-03-09T06:21:16.722Z,43.09
2019-03-09T06:22:16.752Z,43.17
2019-03-09T06:23:16.695Z,43.21
2019-03-09T06:24:16.790Z,43.16
2019-03-09T06:25:16.893Z,43.11
2019-03-09T06:26:16.696Z,43.12
2019-03-09T06:27:17.074Z,43.14
2019-03-09T06:28:16.677Z,43.3
2019-03-09T06:29:16.676Z,43.07
2019-03-09T06:30:16.735Z,43.08
2019-03-09T06:31:16.581Z,43.05
2019-03-09T06:32:16.686Z,43.11
2019-03-09T06:33:16.883Z,43.19
2019-03-09T06:34:16.587Z,43.18
2019-03-09T06:35:16.727Z,43.18
2019-03-09T06:36:16.819Z,43.07
2019-03-09T06:37:16.599Z,43.13
2019-03-09T06:38:16.770Z,43.15
2019-03-09T06:39:16.647Z,43.18
2019-03-09T06:40:16.675Z,43.18
2019-03-09T06:41:16.829Z,43.19
2019-03-09T06:42:16.691Z,43.16
2019-03-09T06:43:16.650Z,43.21
2019-03-09T06:44:16.839Z,43.16
2019-03-09T06:45:16.662Z,43.18
2019-03-09T06:46:16.675Z,43.14
2019-03-09T06:47:16.832Z,43.2
2019-03-09T06:48:16.858Z,43.27
2019-03-09T06:49:16.825Z,43.19
2019-03-09T06:50:16.822Z,43.24
2019-03-09T06:51:16.802Z,43.2
2019-03-09T06:52:17.204Z,43.21
2019-03-09T06:53:16.816Z,43.22
2019-03-09T06:54:16.734Z,43.2
2019-03-09T06:55:16.745Z,43.17
2019-03-09T06:56:16.586Z,43.16
2019-03-09T06:57:16.724Z,43.18
2019-03-09T06:58:16.808Z,43.16
2019-03-09T06:59:16.612Z,43.2
2019-03-09T07:00:16.710Z,43.23
2019-03-09T07:01:16.789Z,43.21
2019-03-09T07:02:16.695Z,43.15
2019-03-09T07:03:16.714Z,43.18
2019-03-09T07:04:16.841Z,43.2
2019-03-09T07:05:16.614Z,43.16
2019-03-09T07:06:16.751Z,43.17
2019-03-09T07:07:16.673Z,43.16
2019-03-09T07:08:16.616Z,43.22
2019-03-09T07:09:16.718Z,43.22
2019-03-09T07:10:16.675Z,43.19
2019-03-09T07:11:16.655Z,43.24
2019-03-09T07:12:16.849Z,43.28
2019-03-09T07:13:16.880Z,43.22
2019-03-09T07:14:16.768Z,43.23
2019-03-09T07:15:16.819Z,43.22
2019-03-09T07:16:16.634Z,43.23
2019-03-09T07:17:16.820Z,43.23
2019-03-09T07:18:16.722Z,43.27
2019-03-09T07:19:16.711Z,43.27
2019-03-09T07:20:16.686Z,43.26
2019-03-09T07:21:16.562Z,43.23
2019-03-09T07:22:16.720Z,43.24
2019-03-09T07:23:16.853Z,43.27
2019-03-09T07:24:16.563Z,43.27
2019-03-09T07:25:16.755Z,43.33
2019-03-09T07:26:16.772Z,43.31
2019-03-09T07:27:16.721Z,43.31
2019-03-09T07:28:16.743Z,43.28
2019-03-09T07:29:16.947Z,43.34
2019-03-09T07:30:16.583Z,43.32
2019-03-09T07:31:16.760Z,43.34
2019-03-09T07:32:16.572Z,43.34
2019-03-09T07:33:16.658Z,43.35
2019-03-09T07:34:16.762Z,43.36
2019-03-09T07:35:16.854Z,43.33
2019-03-09T07:36:16.598Z,43.36
2019-03-09T07:37:16.782Z,43.36
2019-03-09T07:38:16.635Z,43.4
2019-03-09T07:39:16.704Z,43.42
2019-03-09T07:40:16.546Z,43.38
2019-03-09T07:41:16.795Z,43.43
2019-03-09T07:42:16.727Z,43.41
2019-03-09T07:43:16.582Z,43.44
2019-03-09T07:44:16.727Z,43.42
2019-03-09T07:45:16.875Z,43.48
2019-03-09T07:46:16.631Z,43.48
2019-03-09T07:47:16.998Z,43.45
2019-03-09T07:48:16.735Z,43.5
2019-03-09T07:49:16.685Z,43.49
2019-03-09T07:50:16.774Z,43.56
2019-03-09T07:51:16.509Z,43.53
2019-03-09T07:52:16.620Z,43.56
2019-03-09T07:53:16.782Z,43.53
2019-03-09T07:54:16.606Z,43.58
2019-03-09T07:55:16.742Z,43.57
2019-03-09T07:56:16.853Z,43.56
2019-03-09T07:57:16.639Z,43.59
2019-03-09T07:58:16.757Z,43.59
2019-03-09T07:59:16.797Z,43.61
2019-03-09T08:00:16.645Z,43.64
2019-03-09T08:01:16.701Z,43.6
2019-03-09T08:02:16.878Z,43.65
2019-03-09T08:03:16.655Z,43.67
2019-03-09T08:04:16.694Z,43.62
2019-03-09T08:05:16.549Z,43.68
2019-03-09T08:06:16.678Z,43.68
2019-03-09T08:07:16.901Z,43.69
2019-03-09T08:08:16.572Z,43.7
2019-03-09T08:09:16.689Z,43.68
2019-03-09T08:10:16.773Z,43.7
2019-03-09T08:11:16.680Z,43.72
2019-03-09T08:12:16.803Z,43.76
2019-03-09T08:13:16.643Z,43.73
2019-03-09T08:14:16.616Z,43.74
2019-03-09T08:15:16.793Z,43.79
2019-03-09T08:16:16.831Z,43.72
2019-03-09T08:17:16.675Z,43.77
2019-03-09T08:18:16.811Z,43.81
2019-03-09T08:19:16.856Z,43.76
2019-03-09T08:20:16.735Z,43.78
2019-03-09T08:21:17.004Z,43.81
2019-03-09T08:22:16.703Z,43.81
2019-03-09T08:23:16.713Z,43.78
2019-03-09T08:24:16.594Z,43.84
2019-03-09T08:25:16.731Z,43.78
2019-03-09T08:26:16.687Z,43.8
2019-03-09T08:27:16.522Z,43.81
2019-03-09T08:28:17.020Z,43.79
2019-03-09T08:29:16.717Z,43.81
2019-03-09T08:30:16.569Z,43.82
2019-03-09T08:31:16.687Z,43.8
2019-03-09T08:32:16.871Z,43.81
2019-03-09T08:33:16.625Z,43.82
2019-03-09T08:34:16.713Z,43.77
2019-03-09T08:35:16.935Z,43.85
2019-03-09T08:36:16.642Z,43.86
2019-03-09T08:37:16.843Z,43.81
2019-03-09T08:38:16.745Z,43.8
2019-03-09T08:39:16.711Z,43.82
2019-03-09T08:40:16.932Z,43.79
2019-03-09T08:41:16.696Z,43.8
2019-03-09T08:42:16.693Z,43.82
2019-03-09T08:43:16.856Z,43.84
2019-03-09T08:44:16.690Z,43.81
2019-03-09T08:45:16.695Z,43.83
2019-03-09T08:46:16.602Z,43.86
2019-03-09T08:47:16.798Z,43.7
2019-03-09T08:48:16.723Z,43.7
2019-03-09T08:49:16.641Z,43.74
2019-03-09T08:50:16.706Z,43.75
2019-03-09T08:51:16.753Z,43.75
2019-03-09T08:52:16.811Z,43.91
2019-03-09T08:53:16.804Z,44.01
2019-03-09T08:54:16.804Z,44.12
2019-03-09T08:55:18.731Z,44.12
2019-03-09T08:56:16.845Z,44.1
2019-03-09T08:57:16.818Z,44.21
2019-03-09T08:58:16.846Z,44.24
2019-03-09T08:59:16.782Z,44.25
2019-03-09T09:00:16.867Z,44.29
2019-03-09T09:01:16.733Z,44.26
2019-03-09T09:02:16.738Z,44.26
2019-03-09T09:03:16.523Z,44.26
2019-03-09T09:04:16.600Z,44.1
2019-03-09T09:05:16.747Z,43.88
2019-03-09T09:06:16.643Z,43.89
2019-03-09T09:07:16.715Z,44.52
2019-03-09T09:08:16.854Z,43.84
2019-03-09T09:09:16.750Z,43.89
2019-03-09T09:10:16.793Z,43.98
2019-03-09T09:11:16.800Z,44.02
2019-03-09T09:12:16.705Z,43.91
2019-03-09T09:13:16.668Z,44.03
2019-03-09T09:14:16.501Z,43.97
2019-03-09T09:15:16.685Z,43.93
2019-03-09T09:16:16.821Z,43.88
2019-03-09T09:17:16.677Z,43.98
2019-03-09T09:18:16.776Z,43.81
2019-03-09T09:19:16.792Z,43.98
2019-03-09T09:20:16.705Z,43.7
2019-03-09T09:21:16.671Z,43.71
2019-03-09T09:22:16.537Z,43.55
2019-03-09T09:23:17.146Z,43.38
2019-03-09T09:24:16.949Z,43.38
2019-03-09T09:25:16.667Z,43.52
2019-03-09T09:26:16.668Z,43.52
2019-03-09T09:27:16.705Z,43.5
2019-03-09T09:28:16.664Z,43.54
2019-03-09T09:29:16.661Z,43.63
2019-03-09T09:30:16.618Z,43.64
2019-03-09T09:31:16.698Z,43.66
2019-03-09T09:32:16.729Z,43.63
2019-03-09T09:33:16.485Z,43.65
2019-03-09T09:34:16.692Z,43.63
2019-03-09T09:35:16.716Z,43.65
2019-03-09T09:36:16.558Z,43.62
2019-03-09T09:37:16.720Z,43.63
2019-03-09T09:38:17.004Z,43.78
2019-03-09T09:39:16.535Z,44.05
2019-03-09T09:40:16.737Z,44.03
2019-03-09T09:41:16.671Z,44.11
2019-03-09T09:42:16.587Z,44.07
2019-03-09T09:43:16.775Z,44.09
2019-03-09T09:44:16.636Z,44.07
2019-03-09T09:45:17.257Z,44.1
2019-03-09T09:46:16.992Z,44.06
2019-03-09T09:47:16.625Z,44.13
2019-03-09T09:48:16.730Z,44.15
2019-03-09T09:49:16.620Z,44.1
2019-03-09T09:50:16.700Z,44.11
2019-03-09T09:51:16.696Z,44.12
2019-03-09T09:52:16.601Z,44.26
2019-03-09T09:53:16.961Z,44.09
2019-03-09T09:54:16.845Z,44.09
2019-03-09T09:55:16.689Z,44.03
2019-03-09T09:56:16.631Z,44.09
2019-03-09T09:57:16.492Z,44.13
2019-03-09T09:58:16.748Z,44.25
2019-03-09T09:59:16.698Z,44.16
2019-03-09T10:00:16.618Z,44.19
2019-03-09T10:01:16.622Z,44.14
2019-03-09T10:02:16.748Z,44.11
2019-03-09T10:03:16.583Z,44.04
2019-03-09T10:04:16.726Z,44.18
2019-03-09T10:05:16.487Z,44.22
2019-03-09T10:06:16.647Z,44.27
2019-03-09T10:07:16.535Z,44.11
2019-03-09T10:08:16.566Z,44.17
2019-03-09T10:09:16.672Z,44.28
2019-03-09T10:10:16.564Z,44.2
2019-03-09T10:11:16.554Z,43.87
2019-03-09T10:12:16.764Z,43.77
2019-03-09T10:13:16.618Z,43.74
2019-03-09T10:14:16.711Z,43.74
2019-03-09T10:15:16.739Z,43.79
2019-03-09T10:16:16.600Z,43.81
2019-03-09T10:17:16.577Z,43.75
2019-03-09T10:18:16.490Z,43.76
2019-03-09T10:19:16.724Z,43.8
2019-03-09T10:20:16.772Z,43.71
2019-03-09T10:21:16.526Z,43.76
2019-03-09T10:22:16.773Z,43.75
2019-03-09T10:23:16.701Z,43.78
2019-03-09T10:24:16.516Z,43.7
2019-03-09T10:25:16.680Z,43.74
2019-03-09T10:26:16.898Z,43.9
2019-03-09T10:27:16.773Z,43.97
2019-03-09T10:28:16.933Z,43.98
2019-03-09T10:29:16.996Z,44.01
2019-03-09T10:30:16.590Z,44.01
2019-03-09T10:31:16.730Z,43.93
2019-03-09T10:32:16.567Z,43.97
2019-03-09T10:33:16.636Z,43.93
2019-03-09T10:34:16.478Z,43.92
2019-03-09T10:35:16.603Z,43.94
2019-03-09T10:36:16.620Z,43.95
2019-03-09T10:37:16.512Z,43.92
2019-03-09T10:38:16.656Z,43.85
2019-03-09T10:39:16.803Z,43.9
2019-03-09T10:40:16.680Z,43.9
2019-03-09T10:41:16.707Z,43.92
2019-03-09T10:42:16.525Z,43.96
2019-03-09T10:43:16.585Z,43.83
2019-03-09T10:44:16.690Z,43.77
2019-03-09T10:45:16.639Z,43.87
2019-03-09T10:46:16.593Z,43.84
2019-03-09T10:47:16.752Z,43.78
2019-03-09T10:48:16.550Z,43.74
2019-03-09T10:49:16.656Z,43.65
2019-03-09T10:50:16.840Z,43.65
2019-03-09T10:51:16.645Z,43.72
2019-03-09T10:52:16.651Z,43.68
2019-03-09T10:53:16.583Z,43.68
2019-03-09T10:54:16.611Z,43.69
2019-03-09T10:55:16.654Z,43.69
2019-03-09T10:56:16.601Z,43.67
2019-03-09T10:57:16.649Z,43.64
2019-03-09T10:58:16.752Z,43.64
2019-03-09T10:59:16.673Z,43.64
2019-03-09T11:00:16.693Z,43.61
2019-03-09T11:01:16.533Z,43.64
2019-03-09T11:02:16.718Z,43.62
2019-03-09T11:03:16.735Z,43.65
2019-03-09T11:04:24.295Z,43.64
2019-03-09T11:05:16.649Z,43.45
2019-03-09T11:06:16.719Z,43.23
2019-03-09T11:07:16.507Z,43.33
2019-03-09T11:08:16.666Z,43.17
2019-03-09T11:09:16.703Z,43.27
2019-03-09T11:10:16.757Z,43.15
2019-03-09T11:11:16.559Z,43.14
2019-03-09T11:12:17.175Z,43.15
2019-03-09T11:13:16.620Z,43.27
2019-03-09T11:14:16.652Z,43.16
2019-03-09T11:15:16.576Z,43.19
2019-03-09T11:16:16.655Z,43.27
2019-03-09T11:17:16.657Z,43.31
2019-03-09T11:18:16.553Z,43.36
2019-03-09T11:19:16.708Z,43.34
2019-03-09T11:20:16.505Z,43.39
2019-03-09T11:21:16.632Z,43.42
2019-03-09T11:22:16.639Z,43.45
2019-03-09T11:23:16.518Z,43.49
2019-03-09T11:24:16.549Z,43.42
2019-03-09T11:25:16.731Z,43.42
2019-03-09T11:26:16.662Z,43.38
2019-03-09T11:27:16.468Z,43.45
2019-03-09T11:28:16.786Z,43.48
2019-03-09T11:29:16.684Z,43.48
2019-03-09T11:30:16.640Z,43.5
2019-03-09T11:31:16.637Z,43.5
2019-03-09T11:32:16.679Z,43.49
2019-03-09T11:33:16.641Z,43.56
2019-03-09T11:34:16.708Z,43.54
2019-03-09T11:35:16.601Z,43.49
2019-03-09T11:36:16.588Z,43.45
2019-03-09T11:37:16.714Z,43.45
2019-03-09T11:38:16.603Z,43.45
2019-03-09T11:39:16.622Z,43.48
2019-03-09T11:40:16.790Z,43.47
2019-03-09T11:41:19.859Z,43.46
2019-03-09T11:42:16.613Z,43.44
2019-03-09T11:43:16.400Z,43.42
2019-03-09T11:44:16.610Z,43.4
2019-03-09T11:45:16.620Z,43.4
2019-03-09T11:46:16.578Z,43.4
2019-03-09T11:47:16.621Z,43.39
2019-03-09T11:48:16.700Z,43.43
2019-03-09T11:49:16.509Z,43.4
2019-03-09T11:50:16.863Z,43.39
2019-03-09T11:51:16.698Z,43.42
2019-03-09T11:52:20.947Z,43.45
2019-03-09T11:53:16.674Z,43.44
2019-03-09T11:54:16.656Z,43.41
2019-03-09T11:55:16.658Z,43.41
2019-03-09T11:56:16.983Z,43.38
2019-03-09T11:57:16.465Z,43.38
2019-03-09T11:58:16.540Z,43.38
2019-03-09T11:59:16.653Z,43.37
2019-03-09T12:00:16.576Z,43.36
2019-03-09T12:01:16.623Z,43.32
2019-03-09T12:02:16.666Z,43.33
2019-03-09T12:03:16.644Z,43.32
2019-03-09T12:04:16.593Z,43.31
2019-03-09T12:05:16.781Z,43.36
2019-03-09T12:06:16.551Z,43.29
2019-03-09T12:07:16.625Z,43.34
2019-03-09T12:08:16.442Z,43.34
2019-03-09T12:09:16.572Z,43.33
2019-03-09T12:10:16.745Z,43.38
2019-03-09T12:11:16.537Z,43.41
2019-03-09T12:12:16.657Z,43.29
2019-03-09T12:13:16.482Z,43.36
2019-03-09T12:14:16.553Z,43.43
2019-03-09T12:15:16.730Z,43.4
2019-03-09T12:16:16.681Z,43.6
2019-03-09T12:17:16.659Z,43.65
2019-03-09T12:18:16.763Z,43.74
2019-03-09T12:19:16.557Z,43.45
2019-03-09T12:20:16.575Z,43.38
2019-03-09T12:21:16.461Z,43.35
2019-03-09T12:22:16.581Z,43.38
2019-03-09T12:23:16.782Z,43.34
2019-03-09T12:24:20.372Z,43.45
2019-03-09T12:25:16.677Z,43.45
2019-03-09T12:26:16.763Z,43.44
2019-03-09T12:27:16.545Z,43.5
2019-03-09T12:28:16.615Z,43.47
2019-03-09T12:29:16.480Z,43.45
2019-03-09T12:30:16.653Z,43.48
2019-03-09T12:31:16.675Z,43.48
2019-03-09T12:32:16.530Z,43.5
2019-03-09T12:33:16.573Z,43.49
2019-03-09T12:34:16.678Z,43.49
2019-03-09T12:35:16.597Z,43.54
2019-03-09T12:36:16.558Z,43.54
2019-03-09T12:37:16.386Z,43.51
2019-03-09T12:38:16.591Z,43.47
2019-03-09T12:39:18.531Z,43.44
2019-03-09T12:40:16.464Z,43.44
2019-03-09T12:41:16.630Z,43.48
2019-03-09T12:42:16.736Z,43.46
2019-03-09T12:43:16.598Z,43.46
2019-03-09T12:44:16.632Z,43.58
2019-03-09T12:45:16.770Z,43.46
2019-03-09T12:46:16.675Z,43.51
2019-03-09T12:47:19.286Z,43.61
2019-03-09T12:48:16.467Z,43.58
2019-03-09T12:49:16.505Z,43.49
2019-03-09T12:50:16.623Z,43.55
2019-03-09T12:51:16.627Z,43.45
2019-03-09T12:52:16.695Z,43.52
2019-03-09T12:53:16.731Z,43.49
2019-03-09T12:54:16.555Z,43.49
2019-03-09T12:55:16.744Z,43.46